createdAt,value
2019-01-21T00:00:42.826Z,38.13
2019-01-21T00:03:14.794Z,33.77
2019-01-21T00:05:39.958Z,34.00
2019-01-21T00:08:07.649Z,36.47
2019-01-21T00:10:35.226Z,34.93
2019-01-21T00:13:04.255Z,40.83
2019-01-21T00:15:31.910Z,35.53
2019-01-21T00:17:59.550Z,36.43
2019-01-21T00:20:27.137Z,38.03
2019-01-21T00:22:54.671Z,37.50
2019-01-21T00:25:22.241Z,33.43
2019-01-21T00:27:49.855Z,35.80
2019-01-21T00:30:17.680Z,35.43
2019-01-21T00:32:45.356Z,36.03
2019-01-21T00:35:12.959Z,32.03
2019-01-21T00:37:40.577Z,34.13
2019-01-21T00:40:09.773Z,34.37
2019-01-21T00:42:37.323Z,33.33
2019-01-21T00:45:05.581Z,32.53
2019-01-21T00:47:33.201Z,29.50
2019-01-21T00:50:00.797Z,32.10
2019-01-21T00:52:28.387Z,30.63
2019-01-21T00:54:55.958Z,30.60
2019-01-21T00:57:23.543Z,29.17
2019-01-21T00:59:51.160Z,29.63
2019-01-21T01:02:18.723Z,29.30
2019-01-21T01:04:46.285Z,29.67
2019-01-21T01:07:13.892Z,31.70
2019-01-21T01:09:41.447Z,27.70
2019-01-21T01:12:09.075Z,25.90
2019-01-21T01:14:36.717Z,28.83
2019-01-21T01:17:07.401Z,32.90
2019-01-21T01:19:34.971Z,30.47
2019-01-21T01:22:02.607Z,31.80
2019-01-21T01:24:30.181Z,29.37
2019-01-21T01:26:57.775Z,28.23
2019-01-21T01:29:25.425Z,30.13
2019-01-21T01:31:52.983Z,29.10
2019-01-21T01:34:20.587Z,27.43
2019-01-21T01:36:48.203Z,28.83
2019-01-21T01:39:15.834Z,30.00
2019-01-21T01:41:43.463Z,30.70
2019-01-21T01:44:11.073Z,28.40
2019-01-21T01:46:38.718Z,29.87
2019-01-21T01:49:06.397Z,29.53
2019-01-21T01:51:34.063Z,29.30
2019-01-21T01:54:01.747Z,28.23
2019-01-21T01:56:29.329Z,28.70
2019-01-21T01:58:56.901Z,29.53
2019-01-21T02:01:24.901Z,29.43
2019-01-21T02:03:52.459Z,28.97
2019-01-21T02:06:20.049Z,29.13
2019-01-21T02:08:47.613Z,27.57
2019-01-21T02:11:15.239Z,28.33
2019-01-21T02:13:42.854Z,28.00
2019-01-21T02:16:10.727Z,32.07
2019-01-21T02:18:38.369Z,28.80
2019-01-21T02:21:06.006Z,29.63
2019-01-21T02:23:37.590Z,29.63
2019-01-21T02:26:14.701Z,25.77
2019-01-21T02:29:12.934Z,31.20
2019-01-21T02:32:17.945Z,28.87
2019-01-21T02:35:11.768Z,29.70
2019-01-21T02:38:33.496Z,30.63
2019-01-21T02:41:23.887Z,34.10
2019-01-21T02:44:13.642Z,32.83
2019-01-21T02:47:05.721Z,36.50
2019-01-21T02:49:56.294Z,29.67
2019-01-21T02:52:57.571Z,32.53
2019-01-21T02:56:04.426Z,30.20
2019-01-21T02:58:58.416Z,31.73
2019-01-21T03:02:13.129Z,31.87
2019-01-21T03:05:01.908Z,33.13
2019-01-21T03:07:38.745Z,33.30
2019-01-21T03:10:24.386Z,32.73
2019-01-21T03:13:16.904Z,32.23
2019-01-21T03:16:16.705Z,34.20
2019-01-21T03:19:19.165Z,28.47
2019-01-21T03:22:45.614Z,30.90
2019-01-21T03:26:01.167Z,32.67
2019-01-21T03:28:58.506Z,30.90
2019-01-21T03:32:00.737Z,30.03
2019-01-21T03:34:52.699Z,33.17
2019-01-21T03:38:06.179Z,31.60
2019-01-21T03:40:58.613Z,37.50
2019-01-21T03:43:58.793Z,36.00
2019-01-21T03:47:07.311Z,33.73
2019-01-21T03:50:06.133Z,36.80
2019-01-21T03:53:04.149Z,34.83
2019-01-21T03:55:32.359Z,32.13
2019-01-21T03:58:20.625Z,33.50
2019-01-21T04:01:16.877Z,33.13
2019-01-21T04:03:53.085Z,33.77
2019-01-21T04:06:31.597Z,33.33
2019-01-21T04:09:36.781Z,34.60
2019-01-21T04:12:37.231Z,33.93
2019-01-21T04:15:36.073Z,37.20
2019-01-21T04:18:50.575Z,35.47
2019-01-21T04:22:02.649Z,33.80
2019-01-21T04:24:47.105Z,31.83
2019-01-21T04:28:01.757Z,34.77
2019-01-21T04:31:19.711Z,35.70
2019-01-21T04:34:41.262Z,39.70
2019-01-21T04:37:42.005Z,35.90
2019-01-21T04:40:41.335Z,36.53
2019-01-21T04:43:46.847Z,35.47
2019-01-21T04:47:00.959Z,32.90
2019-01-21T04:50:37.719Z,32.97
2019-01-21T04:57:36.043Z,35.53
2019-01-21T05:00:52.915Z,31.43
2019-01-21T05:03:57.054Z,31.37
2019-01-21T05:07:09.451Z,34.13
2019-01-21T05:09:49.607Z,33.40
2019-01-21T05:12:35.351Z,32.37
2019-01-21T05:15:37.997Z,31.77
2019-01-21T05:18:46.446Z,31.23
2019-01-21T05:22:08.030Z,30.17
2019-01-21T05:25:17.555Z,30.10
2019-01-21T05:28:08.377Z,33.20
2019-01-21T05:31:35.774Z,30.30
2019-01-21T05:34:59.221Z,30.23
2019-01-21T05:38:23.569Z,31.23
2019-01-21T05:41:18.541Z,26.37
2019-01-21T05:44:23.610Z,27.50
2019-01-21T05:47:25.813Z,29.10
2019-01-21T05:50:23.853Z,32.30
2019-01-21T05:53:05.691Z,30.20
2019-01-21T05:59:55.633Z,30.70
2019-01-21T06:03:20.591Z,30.50
2019-01-21T06:06:24.567Z,32.60
2019-01-21T06:09:19.505Z,30.07
2019-01-21T06:12:30.694Z,30.73
2019-01-21T06:15:43.329Z,31.90
2019-01-21T06:18:57.238Z,31.40
2019-01-21T06:21:58.222Z,34.93
2019-01-21T06:25:00.693Z,30.10
2019-01-21T06:28:15.215Z,29.93
2019-01-21T06:31:21.773Z,28.50
2019-01-21T06:34:43.138Z,34.20
2019-01-21T06:37:20.468Z,29.67
2019-01-21T06:44:04.825Z,31.80
2019-01-21T06:47:28.879Z,34.63
2019-01-21T06:50:35.463Z,31.70
2019-01-21T06:53:22.444Z,38.03
2019-01-21T06:56:26.439Z,34.87
2019-01-21T06:59:27.217Z,31.83
2019-01-21T07:02:44.313Z,34.37
2019-01-21T07:06:02.867Z,34.80
2019-01-21T07:09:07.359Z,34.03
2019-01-21T07:12:12.503Z,35.43
2019-01-21T07:15:24.551Z,33.97
2019-01-21T07:18:19.874Z,34.53
2019-01-21T07:21:14.658Z,34.00
2019-01-21T07:24:13.028Z,33.63
2019-01-21T07:27:30.247Z,35.40
2019-01-21T07:30:48.284Z,34.50
2019-01-21T07:34:19.017Z,34.13
2019-01-21T07:40:32.444Z,33.10
2019-01-21T07:43:30.313Z,36.07
2019-01-21T07:46:21.664Z,31.17
2019-01-21T07:49:34.081Z,28.17
2019-01-21T07:52:39.158Z,32.57
2019-01-21T07:55:42.029Z,34.23
2019-01-21T07:58:43.548Z,30.17
2019-01-21T08:01:24.598Z,31.93
2019-01-21T08:04:15.688Z,36.77
2019-01-21T08:07:36.988Z,37.00
2019-01-21T08:10:27.458Z,37.57
2019-01-21T08:13:23.426Z,33.50
2019-01-21T08:16:28.087Z,37.63
2019-01-21T08:19:24.354Z,39.27
2019-01-21T08:22:36.828Z,41.20
2019-01-21T08:25:42.027Z,46.33
2019-01-21T08:28:48.576Z,47.13
2019-01-21T08:31:25.308Z,48.40
2019-01-21T08:34:55.949Z,45.47
2019-01-21T08:38:00.401Z,48.10
2019-01-21T08:41:05.159Z,44.13
2019-01-21T08:43:59.845Z,51.57
2019-01-21T08:47:02.211Z,48.27
2019-01-21T08:50:26.476Z,47.93
2019-01-21T08:53:44.617Z,56.10
2019-01-21T09:00:43.832Z,54.70
2019-01-21T09:03:59.985Z,49.97
2019-01-21T09:07:06.716Z,47.87
2019-01-21T09:09:59.938Z,53.27
2019-01-21T09:13:11.245Z,47.63
2019-01-21T09:16:11.085Z,47.20
2019-01-21T09:18:51.764Z,45.33
2019-01-21T09:21:41.534Z,47.10
2019-01-21T09:24:57.151Z,49.67
2019-01-21T09:28:01.453Z,47.57
2019-01-21T09:31:14.094Z,50.57
2019-01-21T09:33:57.225Z,51.63
2019-01-21T09:36:48.338Z,48.23
2019-01-21T09:39:36.131Z,43.90
2019-01-21T09:42:26.953Z,47.77
2019-01-21T09:45:26.666Z,44.13
2019-01-21T09:47:59.003Z,45.47
2019-01-21T09:50:26.980Z,46.57
2019-01-21T09:52:55.292Z,44.27
2019-01-21T09:55:24.763Z,49.07
2019-01-21T09:58:04.156Z,43.23
2019-01-21T10:00:31.813Z,48.87
2019-01-21T10:03:01.884Z,47.00
2019-01-21T10:05:33.055Z,45.07
2019-01-21T10:09:06.337Z,46.70
2019-01-21T10:12:11.340Z,42.63
2019-01-21T10:15:13.192Z,41.17
2019-01-21T10:18:16.853Z,43.80
2019-01-21T10:21:21.965Z,45.27
2019-01-21T10:24:46.024Z,39.50
2019-01-21T10:27:54.207Z,44.60
2019-01-21T10:30:52.368Z,42.60
2019-01-21T10:34:23.758Z,40.03
2019-01-21T10:37:22.259Z,39.20
2019-01-21T10:40:11.580Z,37.53
2019-01-21T10:43:25.162Z,38.60
2019-01-21T10:46:11.121Z,34.73
2019-01-21T10:49:44.913Z,33.80
2019-01-21T10:52:52.968Z,30.77
2019-01-21T10:56:14.541Z,31.10
2019-01-21T10:59:27.473Z,31.77
2019-01-21T11:02:35.511Z,34.00
2019-01-21T11:05:37.413Z,38.33
2019-01-21T11:08:41.169Z,40.27
2019-01-21T11:11:47.008Z,40.37
2019-01-21T11:14:40.311Z,48.53
2019-01-21T11:17:44.420Z,54.13
2019-01-21T11:20:21.042Z,43.40
2019-01-21T11:23:42.707Z,42.13
2019-01-21T11:26:56.782Z,46.23
2019-01-21T11:30:01.585Z,43.90
2019-01-21T11:33:05.419Z,40.97
2019-01-21T11:36:17.569Z,42.27
2019-01-21T11:39:05.431Z,45.00
2019-01-21T11:41:54.363Z,38.83
2019-01-21T11:44:54.515Z,39.17
2019-01-21T11:48:18.485Z,32.50
2019-01-21T11:51:21.584Z,35.40
2019-01-21T11:54:16.787Z,34.83
2019-01-21T11:57:10.129Z,34.77
2019-01-21T11:59:56.628Z,38.20
2019-01-21T12:02:30.137Z,36.10
2019-01-21T12:05:30.673Z,41.73
2019-01-21T12:08:51.813Z,28.47
2019-01-21T12:11:57.224Z,35.27
2019-01-21T12:15:00.560Z,33.37
2019-01-21T12:18:27.923Z,34.27
2019-01-21T12:21:35.613Z,26.93
2019-01-21T12:24:19.031Z,31.37
2019-01-21T12:27:23.052Z,27.43
2019-01-21T12:30:41.547Z,28.00
2019-01-21T12:34:00.434Z,37.63
2019-01-21T12:36:42.754Z,29.17
2019-01-21T12:39:39.619Z,28.60
2019-01-21T12:42:14.303Z,29.57
2019-01-21T12:45:15.560Z,29.80
2019-01-21T12:48:23.553Z,29.13
2019-01-21T12:51:38.129Z,27.37
2019-01-21T12:54:42.469Z,29.77
2019-01-21T12:57:44.303Z,28.37
2019-01-21T13:01:02.093Z,28.87
2019-01-21T13:03:50.493Z,24.93
2019-01-21T13:07:15.089Z,25.57
2019-01-21T13:10:08.253Z,27.63
2019-01-21T13:13:31.493Z,26.43
2019-01-21T13:16:17.459Z,28.20
2019-01-21T13:19:45.001Z,29.93
2019-01-21T13:22:55.447Z,32.87
2019-01-21T13:26:04.176Z,31.27
2019-01-21T13:29:06.425Z,28.03
2019-01-21T13:32:02.595Z,28.07
2019-01-21T13:35:36.341Z,28.87
2019-01-21T13:38:40.143Z,23.63
2019-01-21T13:41:53.649Z,25.77
2019-01-21T13:45:10.991Z,23.90
2019-01-21T13:48:23.940Z,23.00
2019-01-21T13:51:29.061Z,21.67
2019-01-21T13:54:17.801Z,24.87
2019-01-21T13:57:00.810Z,22.67
2019-01-21T14:00:24.350Z,25.97
2019-01-21T14:03:23.369Z,27.87
2019-01-21T14:06:31.846Z,28.77
2019-01-21T14:09:28.223Z,35.63
2019-01-21T14:12:13.705Z,31.33
2019-01-21T14:15:10.860Z,25.70
2019-01-21T14:18:16.084Z,29.83
2019-01-21T14:21:12.981Z,24.10
2019-01-21T14:24:18.447Z,23.43
2019-01-21T14:27:02.665Z,24.57
2019-01-21T14:29:56.802Z,20.77
2019-01-21T14:33:07.950Z,24.77
2019-01-21T14:36:03.046Z,21.47
2019-01-21T14:39:21.443Z,24.43
2019-01-21T14:42:30.755Z,22.93
2019-01-21T14:45:39.506Z,22.83
2019-01-21T14:48:50.806Z,23.50
2019-01-21T14:52:02.025Z,26.47
2019-01-21T14:55:11.258Z,33.37
2019-01-21T14:58:04.836Z,27.80
2019-01-21T15:00:59.909Z,30.03
2019-01-21T15:04:17.907Z,29.47
2019-01-21T15:11:17.914Z,27.97
2019-01-21T15:14:06.741Z,26.33
2019-01-21T15:17:03.342Z,29.63
2019-01-21T15:20:08.347Z,26.63
2019-01-21T15:23:19.528Z,26.13
2019-01-21T15:26:35.358Z,23.77
2019-01-21T15:29:46.712Z,24.13
2019-01-21T15:32:53.511Z,23.10
2019-01-21T15:35:51.795Z,31.70
2019-01-21T15:38:51.503Z,28.70
2019-01-21T15:41:53.992Z,27.53
2019-01-21T15:44:53.370Z,25.93
2019-01-21T15:47:46.042Z,24.83
2019-01-21T15:50:42.011Z,29.03
2019-01-21T15:53:37.161Z,27.93
2019-01-21T15:56:46.406Z,25.27
2019-01-21T15:59:50.031Z,29.50
2019-01-21T16:02:24.689Z,27.47
2019-01-21T16:05:16.415Z,26.07
2019-01-21T16:08:15.987Z,27.80
2019-01-21T16:11:17.652Z,25.40
2019-01-21T16:13:58.303Z,25.87
2019-01-21T16:17:03.107Z,29.53
2019-01-21T16:19:38.476Z,24.93
2019-01-21T16:23:09.196Z,28.17
2019-01-21T16:25:47.686Z,28.93
2019-01-21T16:28:43.219Z,34.07
2019-01-21T16:31:36.307Z,28.60
2019-01-21T16:34:57.916Z,39.00
2019-01-21T16:38:06.415Z,32.90
2019-01-21T16:41:18.674Z,36.77
2019-01-21T16:43:49.287Z,34.50
2019-01-21T16:46:25.966Z,36.07
2019-01-21T16:48:53.512Z,30.50
2019-01-21T16:51:21.136Z,36.73
2019-01-21T16:53:53.589Z,34.10
2019-01-21T16:56:21.358Z,32.87
2019-01-21T16:58:49.023Z,37.03
2019-01-21T17:01:19.406Z,37.43
2019-01-21T17:03:47.029Z,41.20
2019-01-21T17:06:14.728Z,37.63
2019-01-21T17:08:42.412Z,37.17
2019-01-21T17:11:10.115Z,37.37
2019-01-21T17:13:37.694Z,39.70
2019-01-21T17:16:05.345Z,38.23
2019-01-21T17:18:33.041Z,34.73
2019-01-21T17:21:00.632Z,45.03
2019-01-21T17:23:28.229Z,41.70
2019-01-21T17:25:55.882Z,38.97
2019-01-21T17:28:28.553Z,40.73
2019-01-21T17:30:56.120Z,48.13
2019-01-21T17:33:23.955Z,53.97
2019-01-21T17:35:51.602Z,52.73
2019-01-21T17:38:22.797Z,49.87
2019-01-21T17:40:50.446Z,52.67
2019-01-21T17:43:18.697Z,55.73
2019-01-21T17:45:46.360Z,67.00
2019-01-21T17:48:14.075Z,68.87
2019-01-21T17:50:50.135Z,73.27
2019-01-21T17:53:28.670Z,84.70
2019-01-21T17:55:58.949Z,98.60
2019-01-21T17:58:26.547Z,98.40
2019-01-21T18:01:26.752Z,84.83
2019-01-21T18:03:57.347Z,81.63
2019-01-21T18:06:37.286Z,89.53
2019-01-21T18:09:07.895Z,89.23
2019-01-21T18:11:41.082Z,89.83
2019-01-21T18:14:05.611Z,76.53
2019-01-21T18:16:36.095Z,78.10
2019-01-21T18:19:04.061Z,85.63
2019-01-21T18:21:31.859Z,84.50
2019-01-21T18:24:02.586Z,80.90
2019-01-21T18:26:42.413Z,84.87
2019-01-21T18:29:10.096Z,82.00
2019-01-21T18:31:41.172Z,81.20
2019-01-21T18:37:00.803Z,82.27
2019-01-21T18:39:30.152Z,104.53
2019-01-21T18:42:00.921Z,101.97
2019-01-21T18:44:28.725Z,89.73
2019-01-21T18:46:56.420Z,97.53
2019-01-21T18:49:25.525Z,93.97
2019-01-21T18:51:56.233Z,91.93
2019-01-21T18:54:26.130Z,90.97
2019-01-21T18:56:53.765Z,84.67
2019-01-21T18:59:22.297Z,88.70
2019-01-21T19:01:51.629Z,88.50
2019-01-21T19:04:19.888Z,89.00
2019-01-21T19:06:49.510Z,85.23
2019-01-21T19:09:18.250Z,86.63
2019-01-21T19:11:45.859Z,81.97
2019-01-21T19:14:25.374Z,80.80
2019-01-21T19:16:56.322Z,71.50
2019-01-21T19:19:23.995Z,84.87
2019-01-21T19:21:53.690Z,72.23
2019-01-21T19:24:21.474Z,72.00
2019-01-21T19:26:49.080Z,79.50
2019-01-21T19:29:16.876Z,78.90
2019-01-21T19:31:44.472Z,81.10
2019-01-21T19:34:12.633Z,80.30
2019-01-21T19:36:48.790Z,74.23
2019-01-21T19:39:16.767Z,75.00
2019-01-21T19:41:45.336Z,72.70
2019-01-21T19:44:13.012Z,73.13
2019-01-21T19:46:44.227Z,74.30
2019-01-21T19:49:12.073Z,67.27
2019-01-21T19:51:39.770Z,67.07
2019-01-21T19:54:07.359Z,67.13
2019-01-21T19:56:36.239Z,67.97
2019-01-21T19:59:04.309Z,67.30
2019-01-21T20:01:31.934Z,68.00
2019-01-21T20:04:13.158Z,63.27
2019-01-21T20:06:43.792Z,59.57
2019-01-21T20:09:11.403Z,69.73
2019-01-21T20:11:42.066Z,64.47
2019-01-21T20:14:09.902Z,66.17
2019-01-21T20:16:40.660Z,66.10
2019-01-21T20:19:08.419Z,69.63
2019-01-21T20:21:36.055Z,70.27
2019-01-21T20:24:03.964Z,65.83
2019-01-21T20:26:34.574Z,67.33
2019-01-21T20:29:02.253Z,66.67
2019-01-21T20:31:33.114Z,65.57
2019-01-21T20:34:00.797Z,67.47
2019-01-21T20:36:29.838Z,62.50
2019-01-21T20:38:57.463Z,65.33
2019-01-21T20:41:25.202Z,63.63
2019-01-21T20:43:52.810Z,62.67
2019-01-21T20:46:29.831Z,64.50
2019-01-21T20:48:57.562Z,66.83
2019-01-21T20:51:26.372Z,59.77
2019-01-21T20:53:57.507Z,63.47
2019-01-21T20:56:25.174Z,64.43
2019-01-21T20:58:52.850Z,62.97
2019-01-21T21:01:20.600Z,65.30
2019-01-21T21:03:52.120Z,66.00
2019-01-21T21:06:33.753Z,61.03
2019-01-21T21:09:01.563Z,63.07
2019-01-21T21:11:32.755Z,60.97
2019-01-21T21:14:00.534Z,63.20
2019-01-21T21:16:29.215Z,63.53
2019-01-21T21:18:57.184Z,59.60
2019-01-21T21:21:25.046Z,62.93
2019-01-21T21:23:52.638Z,66.67
2019-01-21T21:26:20.219Z,61.93
2019-01-21T21:28:48.980Z,64.07
2019-01-21T21:31:16.746Z,63.17
2019-01-21T21:33:44.334Z,62.13
2019-01-21T21:36:12.175Z,66.23
2019-01-21T21:38:40.028Z,63.40
2019-01-21T21:41:07.719Z,62.03
2019-01-21T21:43:35.495Z,60.53
2019-01-21T21:46:03.430Z,60.67
2019-01-21T21:48:31.845Z,54.43
2019-01-21T21:51:00.280Z,60.37
2019-01-21T21:53:28.774Z,59.33
2019-01-21T21:55:56.424Z,60.57
2019-01-21T21:58:24.083Z,60.13
2019-01-21T22:00:52.005Z,59.17
2019-01-21T22:03:20.341Z,58.20
2019-01-21T22:05:47.969Z,60.03
2019-01-21T22:08:16.459Z,55.50
2019-01-21T22:10:44.047Z,60.70
2019-01-21T22:13:11.746Z,55.87
2019-01-21T22:15:39.476Z,54.93
2019-01-21T22:18:07.174Z,54.90
2019-01-21T22:20:37.577Z,58.07
2019-01-21T22:23:05.215Z,60.03
2019-01-21T22:25:32.785Z,56.67
2019-01-21T22:28:02.517Z,56.67
2019-01-21T22:30:30.193Z,60.60
2019-01-21T22:32:57.804Z,60.13
2019-01-21T22:35:25.530Z,58.47
2019-01-21T22:37:53.181Z,55.70
2019-01-21T22:40:22.619Z,60.07
2019-01-21T22:42:50.321Z,55.43
2019-01-21T22:45:18.877Z,54.37
2019-01-21T22:47:46.497Z,59.10
2019-01-21T22:50:15.101Z,52.37
2019-01-21T22:52:42.684Z,53.30
2019-01-21T22:55:11.555Z,51.57
2019-01-21T22:57:39.191Z,51.87
2019-01-21T23:00:36.473Z,54.73
2019-01-21T23:03:04.335Z,52.67
2019-01-21T23:05:31.951Z,51.70
2019-01-21T23:07:59.627Z,53.10
2019-01-21T23:10:27.228Z,53.57
2019-01-21T23:12:55.050Z,55.97
2019-01-21T23:15:22.613Z,54.43
2019-01-21T23:17:50.267Z,49.30
2019-01-21T23:20:17.867Z,54.70
2019-01-21T23:22:49.186Z,48.20
2019-01-21T23:25:15.010Z,48.60
2019-01-21T23:27:42.647Z,50.37
2019-01-21T23:30:11.915Z,47.63
2019-01-21T23:32:39.492Z,51.40
2019-01-21T23:35:07.239Z,50.03
2019-01-21T23:37:34.813Z,54.23
2019-01-21T23:40:02.972Z,49.97
2019-01-21T23:42:30.563Z,47.67
2019-01-21T23:44:58.132Z,52.47
2019-01-21T23:47:25.816Z,51.60
2019-01-21T23:49:53.381Z,51.23
2019-01-21T23:52:21.002Z,51.47
2019-01-21T23:54:48.592Z,53.43
2019-01-21T23:57:16.159Z,55.37
2019-01-21T23:59:43.791Z,55.30
